sensor_id;sensor_type;location;lat;lon;timestamp;P1;durP1;ratioP1;P2;durP2;ratioP2
70369;SDS011;57790;51.356;-2.906;2023-03-08T00:00:05;7.93;;;2.20;;
70369;SDS011;57790;51.356;-2.906;2023-03-08T00:03:13;7.53;;;2.25;;
70369;SDS011;57790;51.356;-2.906;2023-03-08T00:06:14;6.60;;;2.22;;
70369;SDS011;57790;51.356;-2.906;2023-03-08T00:09:15;6.80;;;2.13;;
70369;SDS011;57790;51.356;-2.906;2023-03-08T00:12:15;7.03;;;2.17;;
70369;SDS011;57790;51.356;-2.906;2023-03-08T00:15:18;6.97;;;1.90;;
70369;SDS011;57790;51.356;-2.906;2023-03-08T00:18:18;6.20;;;1.95;;
70369;SDS011;57790;51.356;-2.906;2023-03-08T00:21:19;6.90;;;2.00;;
70369;SDS011;57790;51.356;-2.906;2023-03-08T00:24:19;6.87;;;1.90;;
70369;SDS011;57790;51.356;-2.906;2023-03-08T00:27:20;7.67;;;2.13;;
70369;SDS011;57790;51.356;-2.906;2023-03-08T00:30:20;7.50;;;2.13;;
70369;SDS011;57790;51.356;-2.906;2023-03-08T00:33:20;9.43;;;2.70;;
70369;SDS011;57790;51.356;-2.906;2023-03-08T00:36:21;7.40;;;2.57;;
70369;SDS011;57790;51.356;-2.906;2023-03-08T00:39:22;7.30;;;2.10;;
70369;SDS011;57790;51.356;-2.906;2023-03-08T00:42:22;7.03;;;2.20;;
70369;SDS011;57790;51.356;-2.906;2023-03-08T00:45:23;7.03;;;2.13;;
70369;SDS011;57790;51.356;-2.906;2023-03-08T00:48:24;7.30;;;2.10;;
70369;SDS011;57790;51.356;-2.906;2023-03-08T00:51:24;6.97;;;2.20;;
70369;SDS011;57790;51.356;-2.906;2023-03-08T00:54:25;6.20;;;1.83;;
70369;SDS011;57790;51.356;-2.906;2023-03-08T00:57:25;6.30;;;1.80;;
70369;SDS011;57790;51.356;-2.906;2023-03-08T01:00:26;6.40;;;1.97;;
70369;SDS011;57790;51.356;-2.906;2023-03-08T01:03:26;5.50;;;1.57;;
70369;SDS011;57790;51.356;-2.906;2023-03-08T01:06:27;5.57;;;1.93;;
70369;SDS011;57790;51.356;-2.906;2023-03-08T01:09:27;6.30;;;1.83;;
70369;SDS011;57790;51.356;-2.906;2023-03-08T01:12:28;6.40;;;1.97;;
70369;SDS011;57790;51.356;-2.906;2023-03-08T01:15:28;7.10;;;2.03;;
70369;SDS011;57790;51.356;-2.906;2023-03-08T01:18:29;6.60;;;1.70;;
70369;SDS011;57790;51.356;-2.906;2023-03-08T01:21:30;7.37;;;2.00;;
70369;SDS011;57790;51.356;-2.906;2023-03-08T01:24:31;5.88;;;1.88;;
70369;SDS011;57790;51.356;-2.906;2023-03-08T01:27:32;8.10;;;2.10;;
70369;SDS011;57790;51.356;-2.906;2023-03-08T01:30:32;6.97;;;2.33;;
70369;SDS011;57790;51.356;-2.906;2023-03-08T01:33:35;7.10;;;1.90;;
70369;SDS011;57790;51.356;-2.906;2023-03-08T01:36:35;7.25;;;1.80;;
70369;SDS011;57790;51.356;-2.906;2023-03-08T01:39:36;6.80;;;2.07;;
70369;SDS011;57790;51.356;-2.906;2023-03-08T01:42:37;7.00;;;2.08;;
70369;SDS011;57790;51.356;-2.906;2023-03-08T01:49:13;5.95;;;1.92;;
70369;SDS011;57790;51.356;-2.906;2023-03-08T01:52:38;6.72;;;2.42;;
70369;SDS011;57790;51.356;-2.906;2023-03-08T01:55:40;9.00;;;2.38;;
70369;SDS011;57790;51.356;-2.906;2023-03-08T01:58:42;7.43;;;2.50;;
70369;SDS011;57790;51.356;-2.906;2023-03-08T02:01:44;7.05;;;2.20;;
70369;SDS011;57790;51.356;-2.906;2023-03-08T02:04:44;7.53;;;2.40;;
70369;SDS011;57790;51.356;-2.906;2023-03-08T02:07:45;7.37;;;2.30;;
70369;SDS011;57790;51.356;-2.906;2023-03-08T02:10:45;8.67;;;2.63;;
70369;SDS011;57790;51.356;-2.906;2023-03-08T02:13:46;9.43;;;2.53;;
70369;SDS011;57790;51.356;-2.906;2023-03-08T02:16:47;7.65;;;2.67;;
70369;SDS011;57790;51.356;-2.906;2023-03-08T02:19:50;8.20;;;2.80;;
70369;SDS011;57790;51.356;-2.906;2023-03-08T02:23:05;9.00;;;2.90;;
70369;SDS011;57790;51.356;-2.906;2023-03-08T02:26:06;9.00;;;3.30;;
70369;SDS011;57790;51.356;-2.906;2023-03-08T02:29:06;8.27;;;2.73;;
70369;SDS011;57790;51.356;-2.906;2023-03-08T02:32:07;8.67;;;3.20;;
70369;SDS011;57790;51.356;-2.906;2023-03-08T02:35:08;11.40;;;3.43;;
70369;SDS011;57790;51.356;-2.906;2023-03-08T02:38:10;10.23;;;3.70;;
70369;SDS011;57790;51.356;-2.906;2023-03-08T02:41:12;8.15;;;2.75;;
70369;SDS011;57790;51.356;-2.906;2023-03-08T02:44:12;9.77;;;3.07;;
70369;SDS011;57790;51.356;-2.906;2023-03-08T02:47:13;8.67;;;3.10;;
70369;SDS011;57790;51.356;-2.906;2023-03-08T02:50:13;8.50;;;2.70;;
70369;SDS011;57790;51.356;-2.906;2023-03-08T02:53:13;8.07;;;2.45;;
70369;SDS011;57790;51.356;-2.906;2023-03-08T02:56:14;9.13;;;3.30;;
70369;SDS011;57790;51.356;-2.906;2023-03-08T02:59:14;9.20;;;3.00;;
70369;SDS011;57790;51.356;-2.906;2023-03-08T03:02:15;8.57;;;3.00;;
70369;SDS011;57790;51.356;-2.906;2023-03-08T03:05:15;8.53;;;2.60;;
70369;SDS011;57790;51.356;-2.906;2023-03-08T03:08:15;8.00;;;2.93;;
70369;SDS011;57790;51.356;-2.906;2023-03-08T03:11:17;9.07;;;3.23;;
70369;SDS011;57790;51.356;-2.906;2023-03-08T03:14:19;10.93;;;3.20;;
70369;SDS011;57790;51.356;-2.906;2023-03-08T03:17:19;10.27;;;3.83;;
70369;SDS011;57790;51.356;-2.906;2023-03-08T03:20:19;8.77;;;3.28;;
70369;SDS011;57790;51.356;-2.906;2023-03-08T03:23:20;9.70;;;3.43;;
70369;SDS011;57790;51.356;-2.906;2023-03-08T03:26:21;9.07;;;3.33;;
70369;SDS011;57790;51.356;-2.906;2023-03-08T03:29:22;9.85;;;3.67;;
70369;SDS011;57790;51.356;-2.906;2023-03-08T03:32:22;8.77;;;3.27;;
70369;SDS011;57790;51.356;-2.906;2023-03-08T03:35:23;8.93;;;2.97;;
70369;SDS011;57790;51.356;-2.906;2023-03-08T03:38:23;9.03;;;3.40;;
70369;SDS011;57790;51.356;-2.906;2023-03-08T03:41:24;10.20;;;3.10;;
70369;SDS011;57790;51.356;-2.906;2023-03-08T03:44:24;8.57;;;3.40;;
70369;SDS011;57790;51.356;-2.906;2023-03-08T03:47:25;9.20;;;3.27;;
70369;SDS011;57790;51.356;-2.906;2023-03-08T03:50:25;9.27;;;3.33;;
70369;SDS011;57790;51.356;-2.906;2023-03-08T03:53:26;7.63;;;2.77;;
70369;SDS011;57790;51.356;-2.906;2023-03-08T03:56:30;9.32;;;2.90;;
70369;SDS011;57790;51.356;-2.906;2023-03-08T03:59:30;8.60;;;3.07;;
70369;SDS011;57790;51.356;-2.906;2023-03-08T04:02:32;8.88;;;3.13;;
70369;SDS011;57790;51.356;-2.906;2023-03-08T04:05:33;9.00;;;2.93;;
70369;SDS011;57790;51.356;-2.906;2023-03-08T04:08:34;9.85;;;3.08;;
70369;SDS011;57790;51.356;-2.906;2023-03-08T04:11:36;9.20;;;3.20;;
70369;SDS011;57790;51.356;-2.906;2023-03-08T04:14:38;10.05;;;3.92;;
70369;SDS011;57790;51.356;-2.906;2023-03-08T04:17:39;9.70;;;3.60;;
70369;SDS011;57790;51.356;-2.906;2023-03-08T04:20:39;9.07;;;3.07;;
70369;SDS011;57790;51.356;-2.906;2023-03-08T04:23:40;10.83;;;3.87;;
70369;SDS011;57790;51.356;-2.906;2023-03-08T04:26:40;9.82;;;3.53;;
70369;SDS011;57790;51.356;-2.906;2023-03-08T04:29:41;9.20;;;2.90;;
70369;SDS011;57790;51.356;-2.906;2023-03-08T04:32:41;10.00;;;3.57;;
70369;SDS011;57790;51.356;-2.906;2023-03-08T04:35:41;9.97;;;3.33;;
70369;SDS011;57790;51.356;-2.906;2023-03-08T04:38:42;9.20;;;3.17;;
70369;SDS011;57790;51.356;-2.906;2023-03-08T04:41:44;10.20;;;3.88;;
70369;SDS011;57790;51.356;-2.906;2023-03-08T04:44:44;9.27;;;3.50;;
70369;SDS011;57790;51.356;-2.906;2023-03-08T04:47:45;11.03;;;3.67;;
70369;SDS011;57790;51.356;-2.906;2023-03-08T04:50:58;10.75;;;4.00;;
70369;SDS011;57790;51.356;-2.906;2023-03-08T04:54:00;9.47;;;3.40;;
70369;SDS011;57790;51.356;-2.906;2023-03-08T04:57:00;9.30;;;3.27;;
70369;SDS011;57790;51.356;-2.906;2023-03-08T05:00:01;11.10;;;4.10;;
70369;SDS011;57790;51.356;-2.906;2023-03-08T05:03:04;10.67;;;4.13;;
70369;SDS011;57790;51.356;-2.906;2023-03-08T05:06:05;12.60;;;4.70;;
70369;SDS011;57790;51.356;-2.906;2023-03-08T05:09:07;10.80;;;4.32;;
70369;SDS011;57790;51.356;-2.906;2023-03-08T05:12:07;10.50;;;4.30;;
70369;SDS011;57790;51.356;-2.906;2023-03-08T05:15:08;10.43;;;4.20;;
70369;SDS011;57790;51.356;-2.906;2023-03-08T05:18:09;11.20;;;4.10;;
70369;SDS011;57790;51.356;-2.906;2023-03-08T05:21:10;11.57;;;4.40;;
70369;SDS011;57790;51.356;-2.906;2023-03-08T05:24:16;11.65;;;4.18;;
70369;SDS011;57790;51.356;-2.906;2023-03-08T05:27:16;12.60;;;4.47;;
70369;SDS011;57790;51.356;-2.906;2023-03-08T05:30:17;9.33;;;3.63;;
70369;SDS011;57790;51.356;-2.906;2023-03-08T05:33:18;11.87;;;4.70;;
70369;SDS011;57790;51.356;-2.906;2023-03-08T05:36:18;12.35;;;4.45;;
70369;SDS011;57790;51.356;-2.906;2023-03-08T05:39:19;11.93;;;4.10;;
70369;SDS011;57790;51.356;-2.906;2023-03-08T05:42:19;11.57;;;4.27;;
70369;SDS011;57790;51.356;-2.906;2023-03-08T05:45:19;11.70;;;4.50;;
70369;SDS011;57790;51.356;-2.906;2023-03-08T05:48:20;10.87;;;4.27;;
70369;SDS011;57790;51.356;-2.906;2023-03-08T05:51:20;11.68;;;4.43;;
70369;SDS011;57790;51.356;-2.906;2023-03-08T05:54:21;11.43;;;4.60;;
70369;SDS011;57790;51.356;-2.906;2023-03-08T05:57:21;12.17;;;4.53;;
70369;SDS011;57790;51.356;-2.906;2023-03-08T06:00:22;13.50;;;5.00;;
70369;SDS011;57790;51.356;-2.906;2023-03-08T06:03:22;11.52;;;4.57;;
70369;SDS011;57790;51.356;-2.906;2023-03-08T06:06:24;10.80;;;3.90;;
70369;SDS011;57790;51.356;-2.906;2023-03-08T06:09:26;11.75;;;4.60;;
70369;SDS011;57790;51.356;-2.906;2023-03-08T06:12:27;11.77;;;4.63;;
70369;SDS011;57790;51.356;-2.906;2023-03-08T06:15:27;11.10;;;4.15;;
70369;SDS011;57790;51.356;-2.906;2023-03-08T06:18:28;10.93;;;3.93;;
70369;SDS011;57790;51.356;-2.906;2023-03-08T06:21:28;11.83;;;4.97;;
70369;SDS011;57790;51.356;-2.906;2023-03-08T06:24:29;11.20;;;4.00;;
70369;SDS011;57790;51.356;-2.906;2023-03-08T06:27:29;12.70;;;4.83;;
70369;SDS011;57790;51.356;-2.906;2023-03-08T06:30:30;12.50;;;5.07;;
70369;SDS011;57790;51.356;-2.906;2023-03-08T06:33:30;14.17;;;5.10;;
70369;SDS011;57790;51.356;-2.906;2023-03-08T06:36:32;12.15;;;4.28;;
70369;SDS011;57790;51.356;-2.906;2023-03-08T06:39:33;10.43;;;4.27;;
70369;SDS011;57790;51.356;-2.906;2023-03-08T06:42:33;12.27;;;4.70;;
70369;SDS011;57790;51.356;-2.906;2023-03-08T06:45:36;11.88;;;4.60;;
70369;SDS011;57790;51.356;-2.906;2023-03-08T06:48:37;13.03;;;4.93;;
70369;SDS011;57790;51.356;-2.906;2023-03-08T06:51:37;11.57;;;5.07;;
70369;SDS011;57790;51.356;-2.906;2023-03-08T06:54:38;12.57;;;4.77;;
70369;SDS011;57790;51.356;-2.906;2023-03-08T06:57:38;11.70;;;4.37;;
70369;SDS011;57790;51.356;-2.906;2023-03-08T07:00:39;10.90;;;4.10;;
70369;SDS011;57790;51.356;-2.906;2023-03-08T07:03:39;11.48;;;4.15;;
70369;SDS011;57790;51.356;-2.906;2023-03-08T07:06:40;12.27;;;4.50;;
70369;SDS011;57790;51.356;-2.906;2023-03-08T07:09:40;10.32;;;3.90;;
70369;SDS011;57790;51.356;-2.906;2023-03-08T07:12:41;10.40;;;3.90;;
70369;SDS011;57790;51.356;-2.906;2023-03-08T07:15:47;10.95;;;4.00;;
70369;SDS011;57790;51.356;-2.906;2023-03-08T07:18:47;9.83;;;3.93;;
70369;SDS011;57790;51.356;-2.906;2023-03-08T07:21:48;10.97;;;4.43;;
70369;SDS011;57790;51.356;-2.906;2023-03-08T07:24:48;12.03;;;4.40;;
70369;SDS011;57790;51.356;-2.906;2023-03-08T07:27:48;12.20;;;4.93;;
70369;SDS011;57790;51.356;-2.906;2023-03-08T07:30:50;11.73;;;4.77;;
70369;SDS011;57790;51.356;-2.906;2023-03-08T07:33:51;12.32;;;5.32;;
70369;SDS011;57790;51.356;-2.906;2023-03-08T07:36:51;12.73;;;4.83;;
70369;SDS011;57790;51.356;-2.906;2023-03-08T07:39:52;12.90;;;5.00;;
70369;SDS011;57790;51.356;-2.906;2023-03-08T07:42:52;11.13;;;4.17;;
70369;SDS011;57790;51.356;-2.906;2023-03-08T07:45:53;12.63;;;5.17;;
70369;SDS011;57790;51.356;-2.906;2023-03-08T07:48:53;11.90;;;4.72;;
70369;SDS011;57790;51.356;-2.906;2023-03-08T07:51:57;13.00;;;4.80;;
70369;SDS011;57790;51.356;-2.906;2023-03-08T07:54:57;11.95;;;4.63;;
70369;SDS011;57790;51.356;-2.906;2023-03-08T07:57:58;13.03;;;5.23;;
70369;SDS011;57790;51.356;-2.906;2023-03-08T08:00:59;12.98;;;5.15;;
70369;SDS011;57790;51.356;-2.906;2023-03-08T08:03:59;12.10;;;4.87;;
70369;SDS011;57790;51.356;-2.906;2023-03-08T08:06:59;12.23;;;4.60;;
70369;SDS011;57790;51.356;-2.906;2023-03-08T08:10:00;12.03;;;4.90;;
70369;SDS011;57790;51.356;-2.906;2023-03-08T08:13:00;11.47;;;4.37;;
70369;SDS011;57790;51.356;-2.906;2023-03-08T08:16:01;11.50;;;4.60;;
70369;SDS011;57790;51.356;-2.906;2023-03-08T08:19:02;10.77;;;4.13;;
70369;SDS011;57790;51.356;-2.906;2023-03-08T08:22:02;11.52;;;4.65;;
70369;SDS011;57790;51.356;-2.906;2023-03-08T08:25:04;12.37;;;4.27;;
70369;SDS011;57790;51.356;-2.906;2023-03-08T08:28:05;11.98;;;4.85;;
70369;SDS011;57790;51.356;-2.906;2023-03-08T08:31:10;12.30;;;4.60;;
70369;SDS011;57790;51.356;-2.906;2023-03-08T08:34:12;12.10;;;4.50;;
70369;SDS011;57790;51.356;-2.906;2023-03-08T08:37:12;11.40;;;4.33;;
70369;SDS011;57790;51.356;-2.906;2023-03-08T08:40:13;11.25;;;3.88;;
70369;SDS011;57790;51.356;-2.906;2023-03-08T08:43:13;10.40;;;4.00;;
70369;SDS011;57790;51.356;-2.906;2023-03-08T08:46:15;12.75;;;4.57;;
70369;SDS011;57790;51.356;-2.906;2023-03-08T08:49:16;9.93;;;3.77;;
70369;SDS011;57790;51.356;-2.906;2023-03-08T08:52:16;10.55;;;3.88;;
70369;SDS011;57790;51.356;-2.906;2023-03-08T08:55:18;10.03;;;3.53;;
70369;SDS011;57790;51.356;-2.906;2023-03-08T08:58:18;9.98;;;3.75;;
70369;SDS011;57790;51.356;-2.906;2023-03-08T09:01:20;9.50;;;3.73;;
70369;SDS011;57790;51.356;-2.906;2023-03-08T09:04:22;9.43;;;3.33;;
70369;SDS011;57790;51.356;-2.906;2023-03-08T09:07:22;10.07;;;3.77;;
70369;SDS011;57790;51.356;-2.906;2023-03-08T09:10:24;10.27;;;3.63;;
70369;SDS011;57790;51.356;-2.906;2023-03-08T09:13:25;10.32;;;3.85;;
70369;SDS011;57790;51.356;-2.906;2023-03-08T09:16:26;9.27;;;3.43;;
70369;SDS011;57790;51.356;-2.906;2023-03-08T09:19:28;9.15;;;3.05;;
70369;SDS011;57790;51.356;-2.906;2023-03-08T09:22:28;8.57;;;2.87;;
70369;SDS011;57790;51.356;-2.906;2023-03-08T09:25:29;9.60;;;3.13;;
70369;SDS011;57790;51.356;-2.906;2023-03-08T09:28:29;10.47;;;3.53;;
70369;SDS011;57790;51.356;-2.906;2023-03-08T09:31:30;9.43;;;3.40;;
70369;SDS011;57790;51.356;-2.906;2023-03-08T09:34:32;9.82;;;3.38;;
70369;SDS011;57790;51.356;-2.906;2023-03-08T09:37:32;10.15;;;3.25;;
70369;SDS011;57790;51.356;-2.906;2023-03-08T09:40:37;8.37;;;2.90;;
70369;SDS011;57790;51.356;-2.906;2023-03-08T09:53:40;8.53;;;2.57;;
70369;SDS011;57790;51.356;-2.906;2023-03-08T09:56:49;9.30;;;3.03;;
70369;SDS011;57790;51.356;-2.906;2023-03-08T09:59:53;8.98;;;3.15;;
70369;SDS011;57790;51.356;-2.906;2023-03-08T10:06:17;8.50;;;2.73;;
70369;SDS011;57790;51.356;-2.906;2023-03-08T10:09:32;8.80;;;2.70;;
70369;SDS011;57790;51.356;-2.906;2023-03-08T10:15:52;9.43;;;3.05;;
70369;SDS011;57790;51.356;-2.906;2023-03-08T10:18:59;7.57;;;2.75;;
70369;SDS011;57790;51.356;-2.906;2023-03-08T10:22:14;8.20;;;2.67;;
70369;SDS011;57790;51.356;-2.906;2023-03-08T10:25:26;6.93;;;2.40;;
70369;SDS011;57790;51.356;-2.906;2023-03-08T10:28:30;8.23;;;2.60;;
70369;SDS011;57790;51.356;-2.906;2023-03-08T10:31:30;8.60;;;2.83;;
70369;SDS011;57790;51.356;-2.906;2023-03-08T10:34:34;8.07;;;2.90;;
70369;SDS011;57790;51.356;-2.906;2023-03-08T10:37:34;7.77;;;2.73;;
70369;SDS011;57790;51.356;-2.906;2023-03-08T10:40:35;7.47;;;2.40;;
70369;SDS011;57790;51.356;-2.906;2023-03-08T10:43:38;7.10;;;2.40;;
70369;SDS011;57790;51.356;-2.906;2023-03-08T10:46:47;7.63;;;2.35;;
70369;SDS011;57790;51.356;-2.906;2023-03-08T10:50:01;7.40;;;2.30;;
70369;SDS011;57790;51.356;-2.906;2023-03-08T10:53:16;7.72;;;2.33;;
70369;SDS011;57790;51.356;-2.906;2023-03-08T10:56:21;7.40;;;2.50;;
70369;SDS011;57790;51.356;-2.906;2023-03-08T10:59:35;7.43;;;2.15;;
70369;SDS011;57790;51.356;-2.906;2023-03-08T11:02:36;6.00;;;1.87;;
70369;SDS011;57790;51.356;-2.906;2023-03-08T11:05:37;7.85;;;1.90;;
70369;SDS011;57790;51.356;-2.906;2023-03-08T11:08:39;5.97;;;1.93;;
70369;SDS011;57790;51.356;-2.906;2023-03-08T11:11:54;6.88;;;2.03;;
70369;SDS011;57790;51.356;-2.906;2023-03-08T11:14:55;6.63;;;1.75;;
70369;SDS011;57790;51.356;-2.906;2023-03-08T11:28:31;6.57;;;1.70;;
70369;SDS011;57790;51.356;-2.906;2023-03-08T11:31:47;4.88;;;1.38;;
70369;SDS011;57790;51.356;-2.906;2023-03-08T11:35:18;6.40;;;1.60;;
70369;SDS011;57790;51.356;-2.906;2023-03-08T11:38:31;6.50;;;1.70;;
70369;SDS011;57790;51.356;-2.906;2023-03-08T11:41:40;6.83;;;1.77;;
70369;SDS011;57790;51.356;-2.906;2023-03-08T11:57:25;6.45;;;1.63;;
70369;SDS011;57790;51.356;-2.906;2023-03-08T12:00:34;5.28;;;1.48;;
70369;SDS011;57790;51.356;-2.906;2023-03-08T12:03:39;4.30;;;1.20;;
70369;SDS011;57790;51.356;-2.906;2023-03-08T12:06:43;5.07;;;1.60;;
70369;SDS011;57790;51.356;-2.906;2023-03-08T12:09:53;4.78;;;1.50;;
70369;SDS011;57790;51.356;-2.906;2023-03-08T12:13:05;5.25;;;1.38;;
70369;SDS011;57790;51.356;-2.906;2023-03-08T12:25:47;5.38;;;1.50;;
70369;SDS011;57790;51.356;-2.906;2023-03-08T12:28:59;5.70;;;1.40;;
70369;SDS011;57790;51.356;-2.906;2023-03-08T12:32:04;5.05;;;1.40;;
70369;SDS011;57790;51.356;-2.906;2023-03-08T12:38:31;5.32;;;1.40;;
70369;SDS011;57790;51.356;-2.906;2023-03-08T12:41:31;4.18;;;1.35;;
70369;SDS011;57790;51.356;-2.906;2023-03-08T12:44:32;5.27;;;1.50;;
70369;SDS011;57790;51.356;-2.906;2023-03-08T12:47:32;4.57;;;1.40;;
70369;SDS011;57790;51.356;-2.906;2023-03-08T12:51:20;4.27;;;1.33;;
70369;SDS011;57790;51.356;-2.906;2023-03-08T12:54:03;5.35;;;1.42;;
70369;SDS011;57790;51.356;-2.906;2023-03-08T12:57:13;4.75;;;1.30;;
70369;SDS011;57790;51.356;-2.906;2023-03-08T13:00:27;4.87;;;1.50;;
70369;SDS011;57790;51.356;-2.906;2023-03-08T13:03:37;4.38;;;1.30;;
70369;SDS011;57790;51.356;-2.906;2023-03-08T13:16:43;4.77;;;1.30;;
70369;SDS011;57790;51.356;-2.906;2023-03-08T13:19:43;6.35;;;1.80;;
70369;SDS011;57790;51.356;-2.906;2023-03-08T13:29:43;5.40;;;1.47;;
70369;SDS011;57790;51.356;-2.906;2023-03-08T13:32:46;5.43;;;1.47;;
70369;SDS011;57790;51.356;-2.906;2023-03-08T13:35:58;5.82;;;1.45;;
70369;SDS011;57790;51.356;-2.906;2023-03-08T13:39:02;4.80;;;1.40;;
70369;SDS011;57790;51.356;-2.906;2023-03-08T13:42:08;6.20;;;1.40;;
70369;SDS011;57790;51.356;-2.906;2023-03-08T13:45:16;4.37;;;1.33;;
70369;SDS011;57790;51.356;-2.906;2023-03-08T13:48:17;3.60;;;1.10;;
70369;SDS011;57790;51.356;-2.906;2023-03-08T13:51:20;5.40;;;1.52;;
70369;SDS011;57790;51.356;-2.906;2023-03-08T13:57:33;5.25;;;1.60;;
70369;SDS011;57790;51.356;-2.906;2023-03-08T14:00:36;5.97;;;2.00;;
70369;SDS011;57790;51.356;-2.906;2023-03-08T14:03:36;5.73;;;1.60;;
70369;SDS011;57790;51.356;-2.906;2023-03-08T14:06:37;5.80;;;1.70;;
70369;SDS011;57790;51.356;-2.906;2023-03-08T14:09:40;6.10;;;1.70;;
70369;SDS011;57790;51.356;-2.906;2023-03-08T14:12:42;6.03;;;1.73;;
70369;SDS011;57790;51.356;-2.906;2023-03-08T14:15:51;5.70;;;1.80;;
70369;SDS011;57790;51.356;-2.906;2023-03-08T14:18:53;6.30;;;2.03;;
70369;SDS011;57790;51.356;-2.906;2023-03-08T14:24:56;7.37;;;2.20;;
70369;SDS011;57790;51.356;-2.906;2023-03-08T14:28:02;5.20;;;1.65;;
70369;SDS011;57790;51.356;-2.906;2023-03-08T14:31:02;7.10;;;2.10;;
70369;SDS011;57790;51.356;-2.906;2023-03-08T14:34:04;5.63;;;1.80;;
70369;SDS011;57790;51.356;-2.906;2023-03-08T14:40:30;5.97;;;1.60;;
70369;SDS011;57790;51.356;-2.906;2023-03-08T14:43:32;6.13;;;2.00;;
70369;SDS011;57790;51.356;-2.906;2023-03-08T14:46:33;6.10;;;1.90;;
70369;SDS011;57790;51.356;-2.906;2023-03-08T14:49:33;6.25;;;1.70;;
70369;SDS011;57790;51.356;-2.906;2023-03-08T14:52:35;5.67;;;1.67;;
70369;SDS011;57790;51.356;-2.906;2023-03-08T14:55:42;5.80;;;1.80;;
70369;SDS011;57790;51.356;-2.906;2023-03-08T14:58:43;5.77;;;1.70;;
70369;SDS011;57790;51.356;-2.906;2023-03-08T15:01:47;5.70;;;1.88;;
70369;SDS011;57790;51.356;-2.906;2023-03-08T15:04:48;6.37;;;1.90;;
70369;SDS011;57790;51.356;-2.906;2023-03-08T15:07:49;5.40;;;1.97;;
70369;SDS011;57790;51.356;-2.906;2023-03-08T15:10:50;4.47;;;1.45;;
70369;SDS011;57790;51.356;-2.906;2023-03-08T15:13:51;5.55;;;1.95;;
70369;SDS011;57790;51.356;-2.906;2023-03-08T15:16:52;5.73;;;1.63;;
70369;SDS011;57790;51.356;-2.906;2023-03-08T15:19:54;5.97;;;1.70;;
70369;SDS011;57790;51.356;-2.906;2023-03-08T15:22:55;5.80;;;1.90;;
70369;SDS011;57790;51.356;-2.906;2023-03-08T15:25:58;6.05;;;1.77;;
70369;SDS011;57790;51.356;-2.906;2023-03-08T15:28:59;6.30;;;1.90;;
70369;SDS011;57790;51.356;-2.906;2023-03-08T15:32:02;5.07;;;1.73;;
70369;SDS011;57790;51.356;-2.906;2023-03-08T15:35:03;6.37;;;1.80;;
70369;SDS011;57790;51.356;-2.906;2023-03-08T15:38:03;6.05;;;2.00;;
70369;SDS011;57790;51.356;-2.906;2023-03-08T15:41:04;6.73;;;1.90;;
70369;SDS011;57790;51.356;-2.906;2023-03-08T15:44:05;5.93;;;1.67;;
70369;SDS011;57790;51.356;-2.906;2023-03-08T15:47:07;5.45;;;1.90;;
70369;SDS011;57790;51.356;-2.906;2023-03-08T15:50:14;5.50;;;1.70;;
70369;SDS011;57790;51.356;-2.906;2023-03-08T15:53:16;5.05;;;1.60;;
70369;SDS011;57790;51.356;-2.906;2023-03-08T15:56:16;5.30;;;1.40;;
70369;SDS011;57790;51.356;-2.906;2023-03-08T15:59:16;6.13;;;2.00;;
70369;SDS011;57790;51.356;-2.906;2023-03-08T16:02:17;5.57;;;1.80;;
70369;SDS011;57790;51.356;-2.906;2023-03-08T16:05:20;5.45;;;1.73;;
70369;SDS011;57790;51.356;-2.906;2023-03-08T16:08:22;5.05;;;1.55;;
70369;SDS011;57790;51.356;-2.906;2023-03-08T16:11:26;5.67;;;1.53;;
70369;SDS011;57790;51.356;-2.906;2023-03-08T16:14:26;5.43;;;1.80;;
70369;SDS011;57790;51.356;-2.906;2023-03-08T16:17:28;5.37;;;1.80;;
70369;SDS011;57790;51.356;-2.906;2023-03-08T16:20:29;5.75;;;1.77;;
70369;SDS011;57790;51.356;-2.906;2023-03-08T16:23:29;4.93;;;1.40;;
70369;SDS011;57790;51.356;-2.906;2023-03-08T16:26:30;4.73;;;1.47;;
70369;SDS011;57790;51.356;-2.906;2023-03-08T16:29:31;5.70;;;1.33;;
70369;SDS011;57790;51.356;-2.906;2023-03-08T16:32:32;5.07;;;1.50;;
70369;SDS011;57790;51.356;-2.906;2023-03-08T16:35:33;4.95;;;1.58;;
70369;SDS011;57790;51.356;-2.906;2023-03-08T16:38:33;5.10;;;1.37;;
70369;SDS011;57790;51.356;-2.906;2023-03-08T16:41:35;4.50;;;1.70;;
70369;SDS011;57790;51.356;-2.906;2023-03-08T16:44:36;4.38;;;1.52;;
70369;SDS011;57790;51.356;-2.906;2023-03-08T16:47:36;4.07;;;1.30;;
70369;SDS011;57790;51.356;-2.906;2023-03-08T16:50:37;3.47;;;1.10;;
70369;SDS011;57790;51.356;-2.906;2023-03-08T16:53:37;5.63;;;1.38;;
70369;SDS011;57790;51.356;-2.906;2023-03-08T16:56:38;4.20;;;1.10;;
70369;SDS011;57790;51.356;-2.906;2023-03-08T16:59:41;4.43;;;1.30;;
70369;SDS011;57790;51.356;-2.906;2023-03-08T17:02:41;5.10;;;1.38;;
70369;SDS011;57790;51.356;-2.906;2023-03-08T17:05:42;5.17;;;1.47;;
70369;SDS011;57790;51.356;-2.906;2023-03-08T17:08:44;4.97;;;1.60;;
70369;SDS011;57790;51.356;-2.906;2023-03-08T17:11:45;5.78;;;1.60;;
70369;SDS011;57790;51.356;-2.906;2023-03-08T17:14:46;4.93;;;1.53;;
70369;SDS011;57790;51.356;-2.906;2023-03-08T17:17:46;5.60;;;1.63;;
70369;SDS011;57790;51.356;-2.906;2023-03-08T17:20:47;6.43;;;1.70;;
70369;SDS011;57790;51.356;-2.906;2023-03-08T17:23:47;5.18;;;1.50;;
70369;SDS011;57790;51.356;-2.906;2023-03-08T17:26:49;4.93;;;1.60;;
70369;SDS011;57790;51.356;-2.906;2023-03-08T17:29:51;5.38;;;1.45;;
70369;SDS011;57790;51.356;-2.906;2023-03-08T17:32:52;5.95;;;1.70;;
70369;SDS011;57790;51.356;-2.906;2023-03-08T17:35:53;4.53;;;1.37;;
70369;SDS011;57790;51.356;-2.906;2023-03-08T17:38:55;4.38;;;1.50;;
70369;SDS011;57790;51.356;-2.906;2023-03-08T17:41:56;5.10;;;1.50;;
70369;SDS011;57790;51.356;-2.906;2023-03-08T17:44:56;5.40;;;1.60;;
70369;SDS011;57790;51.356;-2.906;2023-03-08T17:47:57;4.07;;;1.33;;
70369;SDS011;57790;51.356;-2.906;2023-03-08T17:51:05;4.60;;;1.48;;
70369;SDS011;57790;51.356;-2.906;2023-03-08T17:54:08;5.05;;;1.88;;
70369;SDS011;57790;51.356;-2.906;2023-03-08T17:57:10;4.70;;;1.10;;
70369;SDS011;57790;51.356;-2.906;2023-03-08T18:00:11;6.10;;;1.90;;
70369;SDS011;57790;51.356;-2.906;2023-03-08T18:03:12;5.07;;;1.75;;
70369;SDS011;57790;51.356;-2.906;2023-03-08T18:06:20;5.47;;;1.97;;
70369;SDS011;57790;51.356;-2.906;2023-03-08T18:09:24;4.80;;;1.58;;
70369;SDS011;57790;51.356;-2.906;2023-03-08T18:12:24;5.00;;;1.67;;
70369;SDS011;57790;51.356;-2.906;2023-03-08T18:15:25;6.37;;;2.00;;
70369;SDS011;57790;51.356;-2.906;2023-03-08T18:18:26;5.85;;;2.00;;
70369;SDS011;57790;51.356;-2.906;2023-03-08T18:21:28;6.13;;;2.10;;
70369;SDS011;57790;51.356;-2.906;2023-03-08T18:24:29;6.35;;;1.98;;
70369;SDS011;57790;51.356;-2.906;2023-03-08T18:27:30;5.53;;;1.80;;
70369;SDS011;57790;51.356;-2.906;2023-03-08T18:30:30;7.17;;;1.93;;
70369;SDS011;57790;51.356;-2.906;2023-03-08T18:33:31;5.30;;;1.90;;
70369;SDS011;57790;51.356;-2.906;2023-03-08T18:36:31;5.90;;;1.85;;
70369;SDS011;57790;51.356;-2.906;2023-03-08T18:39:32;5.67;;;2.03;;
70369;SDS011;57790;51.356;-2.906;2023-03-08T18:42:33;6.03;;;1.50;;
70369;SDS011;57790;51.356;-2.906;2023-03-08T18:45:33;6.27;;;2.10;;
70369;SDS011;57790;51.356;-2.906;2023-03-08T18:48:34;6.80;;;2.20;;
70369;SDS011;57790;51.356;-2.906;2023-03-08T18:51:35;7.28;;;2.25;;
70369;SDS011;57790;51.356;-2.906;2023-03-08T18:54:37;6.50;;;2.03;;
70369;SDS011;57790;51.356;-2.906;2023-03-08T18:57:37;6.40;;;2.38;;
70369;SDS011;57790;51.356;-2.906;2023-03-08T19:00:38;6.47;;;1.97;;
70369;SDS011;57790;51.356;-2.906;2023-03-08T19:03:39;6.33;;;2.00;;
70369;SDS011;57790;51.356;-2.906;2023-03-08T19:06:39;6.18;;;2.00;;
70369;SDS011;57790;51.356;-2.906;2023-03-08T19:09:40;5.00;;;1.77;;
70369;SDS011;57790;51.356;-2.906;2023-03-08T19:12:43;6.10;;;2.22;;
70369;SDS011;57790;51.356;-2.906;2023-03-08T19:15:44;7.20;;;2.50;;
70369;SDS011;57790;51.356;-2.906;2023-03-08T19:18:44;6.57;;;2.20;;